Venice, CA

18:33 PST le 04 Mars 2015 (GMT -0800)
Abbot Kinney | Change Station
CLOSE
Current Station
Stations météorologiques personnelles
Location: Venice, CA
Altitude: 20 ft
Stations météo à proximité

Alt. 20 ft 33.99 °N, 118.47 °W | Updated 6 seconds ago

Clear
Ciel dégagé
61.3 ° F
Paraît 61.3 ° F
N
7.0
Vent Variable Vent de Ouest
Gusts 0.0 mph

Aujourd'hui
Haut(e) -- | Bas -- ° F
--% Risque de précip.
Hier
Haut(e) -- | Bas -- ° F
Precip. -- pouce
6:18 AM 5:52 PM
Pleine lune, 100% visible
Pression 30.09 pouce
Visibilité 10.0 Miles terrestres
Nuages Ciel dégagé
Point de rosée 53 ° F
Humidité 73%
Précipitations 0.00 pouce
Profondeur de la couche neigeuse Non disponible.
UV 0.0 sur 12
Pollen 8.80 sur 12
Qualité de l'air Non disponible.
Flu Activity Non disponible.
METAR KSMO 050151Z 24006KT 10SM CLR 17/08 A3010 RMK AO2 SLP190 T01720078 $

More Conditions Fewer Conditions

Pression 30.09 pouce
Visibilité 10.0 Miles terrestres
Nuages Ciel dégagé
Point de rosée 53 ° F
Humidité 73%
Précipitations 0.00 pouce
Profondeur de la couche neigeuse Non disponible.
UV 0.0 sur 12
Pollen 8.80 sur 12
Qualité de l'air Non disponible.
Flu Activity Non disponible.
METAR KSMO 050151Z 24006KT 10SM CLR 17/08 A3010 RMK AO2 SLP190 T01720078 $

More Conditions Fewer Conditions

10-Day Weather Forecast

Almanac

Astronomie

Mar. 04, 2015 Lever Coucher
Temps réel
Crépuscule civil
Crépuscule nautique
Crépuscule astronomique
Lune
Durée de lumière visible
Longueur du jour
Tomorrow will be .
, % of the Moon is Illuminated

Extrêmes aujourd'hui

State Highs State Lows

Community

WunderPhotos

Upload Photos

1,802,631 Photos téléchargées !

WunderBlogs® & News

Nearby

Qualité de l'air

  Qualité de l'air Indice de la qualité de l'air Polluant
Not available.

Épaisseur de neige

Station Depth Altitude

Activité sismique

Ville Distance Mag. Time & Date
Minimum magnitude displayed is 2.5.

Températures des eaux côtières

Lieu Température

Stations météo à proximité